sensor_id;sensor_type;location;lat;lon;timestamp;pressure;altitude;pressure_sealevel;temperature;humidity
62031;BME280;62035;52.094;5.112;2023-02-22T00:00:57;101657.53;;;9.01;100.00
62031;BME280;62035;52.094;5.112;2023-02-22T00:03:30;101656.44;;;8.93;100.00
62031;BME280;62035;52.094;5.112;2023-02-22T00:05:59;101657.19;;;9.06;100.00
62031;BME280;62035;52.094;5.112;2023-02-22T00:08:31;101676.91;;;8.80;100.00
62031;BME280;62035;52.094;5.112;2023-02-22T00:11:02;101672.00;;;8.75;100.00
62031;BME280;62035;52.094;5.112;2023-02-22T00:13:33;101671.00;;;8.65;100.00
62031;BME280;62035;52.094;5.112;2023-02-22T00:16:02;101668.75;;;8.48;100.00
62031;BME280;62035;52.094;5.112;2023-02-22T00:18:31;101672.97;;;8.50;100.00
62031;BME280;62035;52.094;5.112;2023-02-22T00:20:59;101663.00;;;8.30;100.00
62031;BME280;62035;52.094;5.112;2023-02-22T00:23:29;101667.09;;;8.58;100.00
62031;BME280;62035;52.094;5.112;2023-02-22T00:25:59;101657.31;;;8.47;100.00
62031;BME280;62035;52.094;5.112;2023-02-22T00:28:27;101667.66;;;8.39;100.00
62031;BME280;62035;52.094;5.112;2023-02-22T00:30:55;101667.88;;;8.71;100.00
62031;BME280;62035;52.094;5.112;2023-02-22T00:33:24;101654.25;;;8.76;100.00
62031;BME280;62035;52.094;5.112;2023-02-22T00:35:53;101648.09;;;8.75;100.00
62031;BME280;62035;52.094;5.112;2023-02-22T00:38:21;101657.56;;;8.55;100.00
62031;BME280;62035;52.094;5.112;2023-02-22T00:40:49;101649.88;;;8.63;100.00
62031;BME280;62035;52.094;5.112;2023-02-22T00:43:17;101650.97;;;8.61;100.00
62031;BME280;62035;52.094;5.112;2023-02-22T00:45:44;101648.72;;;8.32;100.00
62031;BME280;62035;52.094;5.112;2023-02-22T00:48:12;101637.84;;;8.71;100.00
62031;BME280;62035;52.094;5.112;2023-02-22T00:50:40;101638.56;;;8.73;100.00
62031;BME280;62035;52.094;5.112;2023-02-22T00:53:09;101631.03;;;8.55;100.00
62031;BME280;62035;52.094;5.112;2023-02-22T00:55:38;101632.19;;;8.75;100.00
62031;BME280;62035;52.094;5.112;2023-02-22T00:58:06;101625.53;;;8.81;100.00
62031;BME280;62035;52.094;5.112;2023-02-22T01:00:35;101636.16;;;8.92;100.00
62031;BME280;62035;52.094;5.112;2023-02-22T01:03:06;101623.38;;;8.75;100.00
62031;BME280;62035;52.094;5.112;2023-02-22T01:05:35;101617.09;;;8.76;100.00
62031;BME280;62035;52.094;5.112;2023-02-22T01:08:05;101620.97;;;8.72;100.00
62031;BME280;62035;52.094;5.112;2023-02-22T01:10:36;101622.72;;;8.60;100.00
62031;BME280;62035;52.094;5.112;2023-02-22T01:13:06;101623.59;;;8.72;100.00
62031;BME280;62035;52.094;5.112;2023-02-22T01:15:38;101630.59;;;8.73;100.00
62031;BME280;62035;52.094;5.112;2023-02-22T01:18:10;101626.63;;;8.67;100.00
62031;BME280;62035;52.094;5.112;2023-02-22T01:20:42;101628.38;;;8.55;100.00
62031;BME280;62035;52.094;5.112;2023-02-22T01:23:13;101630.78;;;8.47;100.00
62031;BME280;62035;52.094;5.112;2023-02-22T01:25:43;101620.03;;;8.38;100.00
62031;BME280;62035;52.094;5.112;2023-02-22T01:28:11;101616.31;;;8.16;100.00
62031;BME280;62035;52.094;5.112;2023-02-22T01:30:40;101626.97;;;8.03;100.00
62031;BME280;62035;52.094;5.112;2023-02-22T01:33:08;101632.47;;;8.37;100.00
62031;BME280;62035;52.094;5.112;2023-02-22T01:35:38;101635.25;;;8.23;100.00
62031;BME280;62035;52.094;5.112;2023-02-22T01:38:07;101633.72;;;8.31;100.00
62031;BME280;62035;52.094;5.112;2023-02-22T01:40:37;101629.06;;;8.35;100.00
62031;BME280;62035;52.094;5.112;2023-02-22T01:43:18;101618.63;;;8.21;100.00
62031;BME280;62035;52.094;5.112;2023-02-22T01:45:52;101610.94;;;8.05;100.00
62031;BME280;62035;52.094;5.112;2023-02-22T01:48:29;101607.44;;;8.04;100.00
62031;BME280;62035;52.094;5.112;2023-02-22T01:51:05;101605.03;;;8.01;100.00
62031;BME280;62035;52.094;5.112;2023-02-22T01:53:40;101601.69;;;8.11;100.00
62031;BME280;62035;52.094;5.112;2023-02-22T01:56:15;101596.19;;;7.66;100.00
62031;BME280;62035;52.094;5.112;2023-02-22T01:58:49;101587.41;;;7.89;100.00
62031;BME280;62035;52.094;5.112;2023-02-22T02:01:21;101582.56;;;7.83;100.00
62031;BME280;62035;52.094;5.112;2023-02-22T02:03:54;101586.94;;;7.48;100.00
62031;BME280;62035;52.094;5.112;2023-02-22T02:06:25;101583.63;;;7.57;100.00
62031;BME280;62035;52.094;5.112;2023-02-22T02:09:00;101585.25;;;7.70;100.00
62031;BME280;62035;52.094;5.112;2023-02-22T02:11:40;101577.38;;;7.58;100.00
62031;BME280;62035;52.094;5.112;2023-02-22T02:14:10;101579.63;;;7.51;100.00
62031;BME280;62035;52.094;5.112;2023-02-22T02:16:41;101574.00;;;7.56;100.00
62031;BME280;62035;52.094;5.112;2023-02-22T02:19:17;101573.06;;;7.68;100.00
62031;BME280;62035;52.094;5.112;2023-02-22T02:25:35;101568.75;;;7.43;100.00
62031;BME280;62035;52.094;5.112;2023-02-22T02:35:06;101563.16;;;7.83;100.00
62031;BME280;62035;52.094;5.112;2023-02-22T02:37:46;101556.31;;;7.56;100.00
62031;BME280;62035;52.094;5.112;2023-02-22T02:40:27;101553.22;;;7.26;100.00
62031;BME280;62035;52.094;5.112;2023-02-22T02:43:06;101550.94;;;7.45;100.00
62031;BME280;62035;52.094;5.112;2023-02-22T02:45:46;101541.56;;;7.28;100.00
62031;BME280;62035;52.094;5.112;2023-02-22T02:48:21;101543.28;;;7.53;100.00
62031;BME280;62035;52.094;5.112;2023-02-22T02:50:55;101511.44;;;7.42;100.00
62031;BME280;62035;52.094;5.112;2023-02-22T02:53:29;101541.22;;;7.33;100.00
62031;BME280;62035;52.094;5.112;2023-02-22T02:56:02;101539.31;;;7.35;100.00
62031;BME280;62035;52.094;5.112;2023-02-22T02:58:30;101542.72;;;7.24;100.00
62031;BME280;62035;52.094;5.112;2023-02-22T03:01:00;101542.59;;;7.39;100.00
62031;BME280;62035;52.094;5.112;2023-02-22T03:03:46;101542.38;;;7.42;100.00
62031;BME280;62035;52.094;5.112;2023-02-22T03:06:39;101528.00;;;7.57;100.00
62031;BME280;62035;52.094;5.112;2023-02-22T03:09:36;101534.69;;;7.74;100.00
62031;BME280;62035;52.094;5.112;2023-02-22T03:12:17;101537.31;;;7.02;100.00
62031;BME280;62035;52.094;5.112;2023-02-22T03:15:02;101525.19;;;6.74;100.00
62031;BME280;62035;52.094;5.112;2023-02-22T03:17:46;101523.34;;;6.87;100.00
62031;BME280;62035;52.094;5.112;2023-02-22T03:20:27;101520.69;;;7.00;100.00
62031;BME280;62035;52.094;5.112;2023-02-22T03:23:03;101525.84;;;7.14;100.00
62031;BME280;62035;52.094;5.112;2023-02-22T03:25:38;101515.53;;;7.22;100.00
62031;BME280;62035;52.094;5.112;2023-02-22T03:28:11;101504.38;;;7.06;100.00
62031;BME280;62035;52.094;5.112;2023-02-22T03:30:47;101520.25;;;7.06;100.00
62031;BME280;62035;52.094;5.112;2023-02-22T03:33:21;101512.13;;;7.20;100.00
62031;BME280;62035;52.094;5.112;2023-02-22T03:36:04;101503.59;;;7.17;100.00
62031;BME280;62035;52.094;5.112;2023-02-22T03:38:40;101495.16;;;7.12;100.00
62031;BME280;62035;52.094;5.112;2023-02-22T03:41:13;101505.41;;;6.80;100.00
62031;BME280;62035;52.094;5.112;2023-02-22T03:43:47;101505.47;;;6.91;100.00
62031;BME280;62035;52.094;5.112;2023-02-22T03:46:20;101501.28;;;7.12;100.00
62031;BME280;62035;52.094;5.112;2023-02-22T03:48:51;101495.16;;;7.12;100.00
62031;BME280;62035;52.094;5.112;2023-02-22T03:51:26;101494.59;;;7.43;100.00
62031;BME280;62035;52.094;5.112;2023-02-22T03:53:54;101485.59;;;7.46;100.00
62031;BME280;62035;52.094;5.112;2023-02-22T03:56:27;101485.84;;;7.06;100.00
62031;BME280;62035;52.094;5.112;2023-02-22T03:59:04;101479.31;;;6.99;100.00
62031;BME280;62035;52.094;5.112;2023-02-22T04:01:35;101476.25;;;6.92;100.00
62031;BME280;62035;52.094;5.112;2023-02-22T04:04:03;101470.63;;;6.97;100.00
62031;BME280;62035;52.094;5.112;2023-02-22T04:06:32;101481.63;;;7.27;100.00
62031;BME280;62035;52.094;5.112;2023-02-22T04:09:00;101469.25;;;6.91;100.00
62031;BME280;62035;52.094;5.112;2023-02-22T04:11:27;101469.69;;;6.85;100.00
62031;BME280;62035;52.094;5.112;2023-02-22T04:13:55;101449.25;;;7.00;100.00
62031;BME280;62035;52.094;5.112;2023-02-22T04:16:23;101457.72;;;6.92;100.00
62031;BME280;62035;52.094;5.112;2023-02-22T04:18:50;101460.28;;;6.81;100.00
62031;BME280;62035;52.094;5.112;2023-02-22T04:21:18;101456.38;;;6.87;100.00
62031;BME280;62035;52.094;5.112;2023-02-22T04:23:47;101449.13;;;6.78;100.00
62031;BME280;62035;52.094;5.112;2023-02-22T04:26:16;101448.06;;;6.67;100.00
62031;BME280;62035;52.094;5.112;2023-02-22T04:28:44;101453.56;;;6.77;100.00
62031;BME280;62035;52.094;5.112;2023-02-22T04:31:11;101450.94;;;7.01;100.00
62031;BME280;62035;52.094;5.112;2023-02-22T04:33:39;101443.25;;;7.33;100.00
62031;BME280;62035;52.094;5.112;2023-02-22T04:36:08;101443.78;;;7.38;100.00
62031;BME280;62035;52.094;5.112;2023-02-22T04:38:38;101429.25;;;7.20;100.00
62031;BME280;62035;52.094;5.112;2023-02-22T04:41:07;101433.09;;;7.16;100.00
62031;BME280;62035;52.094;5.112;2023-02-22T04:43:35;101427.41;;;7.09;100.00
62031;BME280;62035;52.094;5.112;2023-02-22T04:46:02;101410.94;;;6.93;100.00
62031;BME280;62035;52.094;5.112;2023-02-22T04:48:30;101430.75;;;6.87;100.00
62031;BME280;62035;52.094;5.112;2023-02-22T04:50:58;101437.59;;;7.02;100.00
62031;BME280;62035;52.094;5.112;2023-02-22T04:53:25;101414.50;;;7.05;100.00
62031;BME280;62035;52.094;5.112;2023-02-22T04:55:53;101423.66;;;6.88;100.00
62031;BME280;62035;52.094;5.112;2023-02-22T04:58:22;101422.84;;;7.11;100.00
62031;BME280;62035;52.094;5.112;2023-02-22T05:00:50;101416.47;;;6.90;100.00
62031;BME280;62035;52.094;5.112;2023-02-22T05:03:18;101423.44;;;6.91;100.00
62031;BME280;62035;52.094;5.112;2023-02-22T05:05:45;101417.72;;;6.97;100.00
62031;BME280;62035;52.094;5.112;2023-02-22T05:08:13;101410.72;;;6.96;100.00
62031;BME280;62035;52.094;5.112;2023-02-22T05:10:40;101414.72;;;7.01;100.00
62031;BME280;62035;52.094;5.112;2023-02-22T05:13:08;101410.56;;;7.10;100.00
62031;BME280;62035;52.094;5.112;2023-02-22T05:15:37;101367.03;;;7.14;100.00
62031;BME280;62035;52.094;5.112;2023-02-22T05:18:05;101400.50;;;7.26;100.00
62031;BME280;62035;52.094;5.112;2023-02-22T05:20:34;101401.44;;;7.14;100.00
62031;BME280;62035;52.094;5.112;2023-02-22T05:23:02;101408.44;;;7.15;100.00
62031;BME280;62035;52.094;5.112;2023-02-22T05:25:31;101394.47;;;7.13;100.00
62031;BME280;62035;52.094;5.112;2023-02-22T05:28:02;101389.72;;;7.06;100.00
62031;BME280;62035;52.094;5.112;2023-02-22T05:30:35;101396.59;;;7.08;100.00
62031;BME280;62035;52.094;5.112;2023-02-22T05:33:06;101397.78;;;7.04;100.00
62031;BME280;62035;52.094;5.112;2023-02-22T05:35:34;101402.78;;;6.96;100.00
62031;BME280;62035;52.094;5.112;2023-02-22T05:38:03;101403.25;;;7.14;100.00
62031;BME280;62035;52.094;5.112;2023-02-22T05:40:31;101401.28;;;7.05;100.00
62031;BME280;62035;52.094;5.112;2023-02-22T05:42:59;101401.88;;;6.84;100.00
62031;BME280;62035;52.094;5.112;2023-02-22T05:45:28;101399.41;;;6.70;100.00
62031;BME280;62035;52.094;5.112;2023-02-22T05:47:57;101403.41;;;6.76;100.00
62031;BME280;62035;52.094;5.112;2023-02-22T05:50:25;101395.28;;;6.66;100.00
62031;BME280;62035;52.094;5.112;2023-02-22T05:52:53;101389.91;;;6.55;100.00
62031;BME280;62035;52.094;5.112;2023-02-22T05:55:22;101389.66;;;6.71;100.00
62031;BME280;62035;52.094;5.112;2023-02-22T05:57:50;101386.06;;;6.72;100.00
62031;BME280;62035;52.094;5.112;2023-02-22T06:00:20;101386.94;;;6.83;100.00
62031;BME280;62035;52.094;5.112;2023-02-22T06:02:54;101375.53;;;6.83;100.00
62031;BME280;62035;52.094;5.112;2023-02-22T06:05:23;101376.84;;;7.01;100.00
62031;BME280;62035;52.094;5.112;2023-02-22T06:07:52;101380.25;;;6.66;100.00
62031;BME280;62035;52.094;5.112;2023-02-22T06:10:21;101364.63;;;6.63;100.00
62031;BME280;62035;52.094;5.112;2023-02-22T06:12:50;101374.78;;;6.57;100.00
62031;BME280;62035;52.094;5.112;2023-02-22T06:15:19;101390.81;;;6.79;100.00
62031;BME280;62035;52.094;5.112;2023-02-22T06:17:48;101383.09;;;6.76;100.00
62031;BME280;62035;52.094;5.112;2023-02-22T06:20:18;101366.94;;;6.68;100.00
62031;BME280;62035;52.094;5.112;2023-02-22T06:22:50;101375.34;;;6.49;100.00
62031;BME280;62035;52.094;5.112;2023-02-22T06:25:21;101362.84;;;6.51;100.00
62031;BME280;62035;52.094;5.112;2023-02-22T06:27:50;101371.66;;;6.76;100.00
62031;BME280;62035;52.094;5.112;2023-02-22T06:30:20;101369.22;;;6.96;100.00
62031;BME280;62035;52.094;5.112;2023-02-22T06:32:49;101361.00;;;7.12;100.00
62031;BME280;62035;52.094;5.112;2023-02-22T06:35:17;101357.28;;;7.15;100.00
62031;BME280;62035;52.094;5.112;2023-02-22T06:37:45;101357.41;;;7.13;100.00
62031;BME280;62035;52.094;5.112;2023-02-22T06:40:14;101352.28;;;6.99;100.00
62031;BME280;62035;52.094;5.112;2023-02-22T06:42:42;101351.38;;;6.87;100.00
62031;BME280;62035;52.094;5.112;2023-02-22T06:45:10;101353.69;;;6.92;100.00
62031;BME280;62035;52.094;5.112;2023-02-22T06:47:38;101327.00;;;6.95;100.00
62031;BME280;62035;52.094;5.112;2023-02-22T06:50:12;101347.78;;;7.23;100.00
62031;BME280;62035;52.094;5.112;2023-02-22T06:52:45;101348.00;;;7.09;100.00
62031;BME280;62035;52.094;5.112;2023-02-22T06:55:20;101344.06;;;7.15;100.00
62031;BME280;62035;52.094;5.112;2023-02-22T06:57:49;101350.38;;;7.01;100.00
62031;BME280;62035;52.094;5.112;2023-02-22T07:00:19;101343.44;;;7.11;100.00
62031;BME280;62035;52.094;5.112;2023-02-22T07:02:50;101335.41;;;7.24;100.00
62031;BME280;62035;52.094;5.112;2023-02-22T07:05:20;101342.25;;;7.15;100.00
62031;BME280;62035;52.094;5.112;2023-02-22T07:07:50;101333.75;;;7.34;100.00
62031;BME280;62035;52.094;5.112;2023-02-22T07:10:23;101334.09;;;7.29;100.00
62031;BME280;62035;52.094;5.112;2023-02-22T07:12:52;101339.41;;;7.29;100.00
62031;BME280;62035;52.094;5.112;2023-02-22T07:15:22;101347.75;;;7.47;100.00
62031;BME280;62035;52.094;5.112;2023-02-22T07:17:51;101349.25;;;7.27;100.00
62031;BME280;62035;52.094;5.112;2023-02-22T07:20:20;101348.88;;;7.56;100.00
62031;BME280;62035;52.094;5.112;2023-02-22T07:22:49;101351.53;;;7.21;100.00
62031;BME280;62035;52.094;5.112;2023-02-22T07:25:19;101353.31;;;7.20;100.00
62031;BME280;62035;52.094;5.112;2023-02-22T07:27:48;101349.13;;;6.94;100.00
62031;BME280;62035;52.094;5.112;2023-02-22T07:30:18;101361.59;;;7.05;100.00
62031;BME280;62035;52.094;5.112;2023-02-22T07:32:50;101345.25;;;7.11;100.00
62031;BME280;62035;52.094;5.112;2023-02-22T07:35:20;101357.59;;;6.99;100.00
62031;BME280;62035;52.094;5.112;2023-02-22T07:37:49;101340.59;;;6.66;100.00
62031;BME280;62035;52.094;5.112;2023-02-22T07:40:18;101369.88;;;6.76;100.00
62031;BME280;62035;52.094;5.112;2023-02-22T07:42:51;101377.84;;;6.87;100.00
62031;BME280;62035;52.094;5.112;2023-02-22T07:45:22;101374.03;;;6.91;100.00
62031;BME280;62035;52.094;5.112;2023-02-22T07:47:51;101352.78;;;7.04;100.00
62031;BME280;62035;52.094;5.112;2023-02-22T07:50:20;101368.22;;;7.45;100.00
62031;BME280;62035;52.094;5.112;2023-02-22T07:52:52;101367.56;;;7.30;100.00
62031;BME280;62035;52.094;5.112;2023-02-22T07:55:24;101376.56;;;7.28;100.00
62031;BME280;62035;52.094;5.112;2023-02-22T07:57:55;101379.75;;;7.09;100.00
62031;BME280;62035;52.094;5.112;2023-02-22T08:00:26;101384.84;;;7.12;100.00
62031;BME280;62035;52.094;5.112;2023-02-22T08:02:55;101385.06;;;7.09;100.00
62031;BME280;62035;52.094;5.112;2023-02-22T08:05:25;101389.00;;;7.03;100.00
62031;BME280;62035;52.094;5.112;2023-02-22T08:07:54;101384.19;;;7.32;100.00
62031;BME280;62035;52.094;5.112;2023-02-22T08:10:25;101387.19;;;7.04;100.00
62031;BME280;62035;52.094;5.112;2023-02-22T08:12:53;101386.28;;;7.16;100.00
62031;BME280;62035;52.094;5.112;2023-02-22T08:15:24;101377.72;;;7.48;100.00
62031;BME280;62035;52.094;5.112;2023-02-22T08:17:54;101361.63;;;7.62;100.00
62031;BME280;62035;52.094;5.112;2023-02-22T08:20:23;101359.59;;;7.54;100.00
62031;BME280;62035;52.094;5.112;2023-02-22T08:22:51;101348.84;;;7.45;100.00
62031;BME280;62035;52.094;5.112;2023-02-22T08:25:21;101368.75;;;7.73;100.00
62031;BME280;62035;52.094;5.112;2023-02-22T08:27:56;101359.84;;;7.74;100.00
62031;BME280;62035;52.094;5.112;2023-02-22T08:30:27;101364.16;;;7.52;100.00
62031;BME280;62035;52.094;5.112;2023-02-22T08:32:56;101368.72;;;7.50;100.00
62031;BME280;62035;52.094;5.112;2023-02-22T08:35:25;101361.63;;;7.51;100.00
62031;BME280;62035;52.094;5.112;2023-02-22T08:37:55;101361.81;;;7.36;100.00
62031;BME280;62035;52.094;5.112;2023-02-22T08:40:27;101350.56;;;7.68;100.00
62031;BME280;62035;52.094;5.112;2023-02-22T08:42:57;101346.72;;;7.72;100.00
62031;BME280;62035;52.094;5.112;2023-02-22T08:45:26;101346.94;;;7.69;100.00
62031;BME280;62035;52.094;5.112;2023-02-22T08:47:54;101339.13;;;7.79;100.00
62031;BME280;62035;52.094;5.112;2023-02-22T08:50:26;101343.59;;;7.89;100.00
62031;BME280;62035;52.094;5.112;2023-02-22T08:52:57;101330.69;;;8.07;100.00
62031;BME280;62035;52.094;5.112;2023-02-22T08:55:29;101332.28;;;7.87;100.00
62031;BME280;62035;52.094;5.112;2023-02-22T08:58:00;101336.25;;;8.15;100.00
62031;BME280;62035;52.094;5.112;2023-02-22T09:00:30;101327.44;;;8.15;100.00
62031;BME280;62035;52.094;5.112;2023-02-22T09:02:59;101327.31;;;8.05;100.00
62031;BME280;62035;52.094;5.112;2023-02-22T09:05:27;101321.44;;;8.35;100.00
62031;BME280;62035;52.094;5.112;2023-02-22T09:07:55;101335.78;;;8.32;100.00
62031;BME280;62035;52.094;5.112;2023-02-22T09:10:25;101325.34;;;8.63;100.00
62031;BME280;62035;52.094;5.112;2023-02-22T09:12:56;101322.09;;;8.59;100.00
62031;BME280;62035;52.094;5.112;2023-02-22T09:15:25;101310.53;;;8.49;100.00
62031;BME280;62035;52.094;5.112;2023-02-22T09:17:54;101307.59;;;8.75;100.00
62031;BME280;62035;52.094;5.112;2023-02-22T09:20:23;101305.44;;;8.68;100.00
62031;BME280;62035;52.094;5.112;2023-02-22T09:22:51;101314.63;;;8.85;100.00
62031;BME280;62035;52.094;5.112;2023-02-22T09:25:19;101301.28;;;9.08;100.00
62031;BME280;62035;52.094;5.112;2023-02-22T09:27:50;101286.97;;;8.67;100.00
62031;BME280;62035;52.094;5.112;2023-02-22T09:30:22;101284.31;;;9.20;100.00
62031;BME280;62035;52.094;5.112;2023-02-22T09:32:53;101280.31;;;9.05;100.00
62031;BME280;62035;52.094;5.112;2023-02-22T09:35:22;101280.22;;;8.95;100.00
62031;BME280;62035;52.094;5.112;2023-02-22T09:37:53;101274.09;;;9.15;100.00
62031;BME280;62035;52.094;5.112;2023-02-22T09:40:22;101277.38;;;9.28;100.00
62031;BME280;62035;52.094;5.112;2023-02-22T09:43:04;101269.75;;;9.14;100.00
62031;BME280;62035;52.094;5.112;2023-02-22T09:45:47;101268.75;;;9.36;100.00
62031;BME280;62035;52.094;5.112;2023-02-22T09:48:29;101261.91;;;9.64;100.00
62031;BME280;62035;52.094;5.112;2023-02-22T09:51:02;101262.09;;;9.42;100.00
62031;BME280;62035;52.094;5.112;2023-02-22T09:53:44;101247.75;;;9.54;100.00
62031;BME280;62035;52.094;5.112;2023-02-22T09:56:16;101260.78;;;9.97;100.00
62031;BME280;62035;52.094;5.112;2023-02-22T09:58:50;101261.44;;;10.20;100.00
62031;BME280;62035;52.094;5.112;2023-02-22T10:01:24;101252.16;;;10.14;100.00
62031;BME280;62035;52.094;5.112;2023-02-22T10:04:00;101257.56;;;10.03;100.00
62031;BME280;62035;52.094;5.112;2023-02-22T10:06:33;101267.63;;;10.30;100.00
62031;BME280;62035;52.094;5.112;2023-02-22T10:09:03;101260.63;;;9.89;100.00
62031;BME280;62035;52.094;5.112;2023-02-22T10:11:43;101254.75;;;10.54;100.00
62031;BME280;62035;52.094;5.112;2023-02-22T10:14:34;101255.03;;;10.32;100.00
62031;BME280;62035;52.094;5.112;2023-02-22T10:17:23;101266.91;;;10.28;100.00
62031;BME280;62035;52.094;5.112;2023-02-22T10:20:06;101262.34;;;10.40;100.00
62031;BME280;62035;52.094;5.112;2023-02-22T10:22:57;101258.81;;;9.89;100.00
62031;BME280;62035;52.094;5.112;2023-02-22T10:25:38;101255.44;;;10.27;100.00
62031;BME280;62035;52.094;5.112;2023-02-22T10:28:12;101256.81;;;10.22;100.00
62031;BME280;62035;52.094;5.112;2023-02-22T10:30:49;101263.59;;;9.95;100.00
62031;BME280;62035;52.094;5.112;2023-02-22T10:33:23;101267.75;;;9.88;100.00
62031;BME280;62035;52.094;5.112;2023-02-22T10:35:54;101266.88;;;9.78;100.00
62031;BME280;62035;52.094;5.112;2023-02-22T10:38:24;101271.44;;;9.97;100.00
62031;BME280;62035;52.094;5.112;2023-02-22T10:40:56;101262.47;;;10.38;100.00
62031;BME280;62035;52.094;5.112;2023-02-22T10:43:28;101262.16;;;10.22;100.00
62031;BME280;62035;52.094;5.112;2023-02-22T10:46:00;101260.75;;;10.27;100.00
62031;BME280;62035;52.094;5.112;2023-02-22T10:48:34;101256.16;;;10.58;100.00
62031;BME280;62035;52.094;5.112;2023-02-22T10:51:07;101237.56;;;10.68;100.00
62031;BME280;62035;52.094;5.112;2023-02-22T10:53:36;101238.38;;;10.88;100.00
62031;BME280;62035;52.094;5.112;2023-02-22T10:56:10;101230.81;;;10.74;100.00
62031;BME280;62035;52.094;5.112;2023-02-22T10:58:45;101241.31;;;10.56;100.00
62031;BME280;62035;52.094;5.112;2023-02-22T11:01:26;101237.00;;;10.64;100.00
62031;BME280;62035;52.094;5.112;2023-02-22T11:04:04;101233.88;;;10.98;100.00
62031;BME280;62035;52.094;5.112;2023-02-22T11:06:39;101236.03;;;11.41;100.00
62031;BME280;62035;52.094;5.112;2023-02-22T11:09:12;101236.69;;;11.53;100.00
62031;BME280;62035;52.094;5.112;2023-02-22T11:11:42;101238.41;;;11.44;100.00
62031;BME280;62035;52.094;5.112;2023-02-22T11:14:23;101241.38;;;11.68;100.00
62031;BME280;62035;52.094;5.112;2023-02-22T11:16:55;101235.28;;;11.58;100.00
62031;BME280;62035;52.094;5.112;2023-02-22T11:19:25;101245.53;;;11.53;100.00
62031;BME280;62035;52.094;5.112;2023-02-22T11:21:57;101240.06;;;11.92;100.00
62031;BME280;62035;52.094;5.112;2023-02-22T11:24:43;101236.44;;;11.83;100.00
62031;BME280;62035;52.094;5.112;2023-02-22T11:27:26;101238.00;;;12.03;100.00
62031;BME280;62035;52.094;5.112;2023-02-22T11:30:09;101230.41;;;12.09;100.00
62031;BME280;62035;52.094;5.112;2023-02-22T11:32:49;101232.41;;;11.69;100.00
62031;BME280;62035;52.094;5.112;2023-02-22T11:35:36;101223.38;;;12.08;100.00
62031;BME280;62035;52.094;5.112;2023-02-22T11:38:16;101219.44;;;12.12;100.00
62031;BME280;62035;52.094;5.112;2023-02-22T11:40:47;101207.25;;;11.82;100.00
62031;BME280;62035;52.094;5.112;2023-02-22T11:43:33;101220.84;;;12.33;100.00
62031;BME280;62035;52.094;5.112;2023-02-22T11:46:02;101215.19;;;12.19;100.00
62031;BME280;62035;52.094;5.112;2023-02-22T11:48:36;101201.47;;;11.59;100.00
62031;BME280;62035;52.094;5.112;2023-02-22T11:51:22;101200.31;;;12.16;100.00
62031;BME280;62035;52.094;5.112;2023-02-22T11:57:18;101198.88;;;11.67;100.00
62031;BME280;62035;52.094;5.112;2023-02-22T12:00:09;101190.63;;;11.97;100.00
62031;BME280;62035;52.094;5.112;2023-02-22T12:02:58;101185.63;;;12.30;100.00
62031;BME280;62035;52.094;5.112;2023-02-22T12:05:55;101178.78;;;12.00;100.00
62031;BME280;62035;52.094;5.112;2023-02-22T12:08:44;101183.25;;;11.54;100.00
62031;BME280;62035;52.094;5.112;2023-02-22T12:11:24;101186.22;;;11.79;100.00
62031;BME280;62035;52.094;5.112;2023-02-22T12:14:11;101177.66;;;11.48;100.00
62031;BME280;62035;52.094;5.112;2023-02-22T12:17:02;101169.50;;;12.04;100.00
62031;BME280;62035;52.094;5.112;2023-02-22T12:19:42;101170.69;;;12.37;100.00
62031;BME280;62035;52.094;5.112;2023-02-22T12:22:18;101169.78;;;11.83;100.00
62031;BME280;62035;52.094;5.112;2023-02-22T12:24:54;101171.91;;;11.70;100.00
62031;BME280;62035;52.094;5.112;2023-02-22T12:27:30;101159.09;;;11.56;100.00
62031;BME280;62035;52.094;5.112;2023-02-22T12:30:05;101155.78;;;11.72;100.00
62031;BME280;62035;52.094;5.112;2023-02-22T12:32:43;101156.06;;;11.68;100.00
62031;BME280;62035;52.094;5.112;2023-02-22T12:35:19;101164.06;;;11.68;100.00
62031;BME280;62035;52.094;5.112;2023-02-22T12:37:58;101158.81;;;11.59;100.00
62031;BME280;62035;52.094;5.112;2023-02-22T12:40:34;101164.31;;;12.02;100.00
62031;BME280;62035;52.094;5.112;2023-02-22T12:43:16;101155.56;;;11.92;100.00
62031;BME280;62035;52.094;5.112;2023-02-22T12:45:51;101153.44;;;12.14;100.00
62031;BME280;62035;52.094;5.112;2023-02-22T12:48:37;101150.06;;;12.12;100.00
62031;BME280;62035;52.094;5.112;2023-02-22T12:51:19;101156.41;;;11.93;100.00
62031;BME280;62035;52.094;5.112;2023-02-22T12:54:01;101156.66;;;12.35;100.00
62031;BME280;62035;52.094;5.112;2023-02-22T12:56:40;101158.06;;;12.47;100.00
62031;BME280;62035;52.094;5.112;2023-02-22T12:59:18;101157.38;;;12.45;100.00
62031;BME280;62035;52.094;5.112;2023-02-22T13:01:55;101152.50;;;12.58;100.00
62031;BME280;62035;52.094;5.112;2023-02-22T13:04:27;101154.31;;;12.76;100.00
62031;BME280;62035;52.094;5.112;2023-02-22T13:07:04;101147.22;;;12.49;100.00
62031;BME280;62035;52.094;5.112;2023-02-22T13:13:01;101153.34;;;12.06;100.00
62031;BME280;62035;52.094;5.112;2023-02-22T13:15:42;101158.06;;;12.12;100.00
62031;BME280;62035;52.094;5.112;2023-02-22T13:18:22;101157.44;;;12.53;100.00
62031;BME280;62035;52.094;5.112;2023-02-22T13:20:59;101154.78;;;12.53;100.00
62031;BME280;62035;52.094;5.112;2023-02-22T13:23:38;101148.75;;;12.69;100.00
62031;BME280;62035;52.094;5.112;2023-02-22T13:26:21;101147.91;;;12.51;100.00
62031;BME280;62035;52.094;5.112;2023-02-22T13:28:56;101150.13;;;12.73;100.00
62031;BME280;62035;52.094;5.112;2023-02-22T13:31:53;101153.03;;;12.88;100.00
62031;BME280;62035;52.094;5.112;2023-02-22T13:38:04;101157.44;;;12.97;100.00